| time (UTC) | temp F | wind direction | speed MPH | gust MPH | rain 1hr in | rain 24hr in | rain mn in | humidity % | barometer mb |
| 20260904190052 | 85 | 12 | 1.0 | 5.0 | 0.00 | 0.38 | 0.38 | 52 | 1009.2 |
| 20260904184549 | 84 | 10 | 1.0 | 6.0 | 0.00 | 0.38 | 0.38 | 51 | 1009.1 |
| 20260904183047 | 84 | 8 | 1.0 | 4.0 | 0.00 | 0.38 | 0.38 | 51 | 1008.9 |
| 20260904181545 | 83 | 63 | 0.0 | 3.0 | 0.00 | 0.38 | 0.38 | 55 | 1008.8 |
| 20260904180047 | 83 | 175 | 0.0 | 4.0 | 0.00 | 0.38 | 0.38 | 56 | 1008.8 |
| 20260904174544 | 84 | 36 | 0.0 | 3.0 | 0.00 | 0.38 | 0.38 | 54 | 1009.0 |
| 20260904173051 | 84 | 15 | 0.0 | 9.0 | 0.00 | 0.38 | 0.38 | 54 | 1009.1 |
| 20260904171540 | 85 | 11 | 1.0 | 5.0 | 0.00 | 0.38 | 0.38 | 55 | 1009.2 |
| 20260904170042 | 83 | 28 | 2.0 | 5.0 | 0.00 | 0.38 | 0.38 | 54 | 1009.6 |
| 20260904164536 | 83 | 110 | 1.0 | 7.0 | 0.00 | 0.38 | 0.38 | 56 | 1009.4 |
| 20260904163035 | 83 | 102 | 1.0 | 4.0 | 0.00 | 0.38 | 0.38 | 57 | 1009.3 |
| 20260904161534 | 83 | 282 | 1.0 | 5.0 | 0.00 | 0.38 | 0.38 | 57 | 1009.4 |
| 20260904160031 | 82 | 325 | 1.0 | 5.0 | 0.00 | 0.38 | 0.38 | 60 | 1009.6 |
| 20260904154528 | 82 | 346 | 2.0 | 7.0 | 0.00 | 0.38 | 0.38 | 58 | 1009.7 |
| 20260904153027 | 82 | 2 | 1.0 | 7.0 | 0.00 | 0.38 | 0.38 | 63 | 1009.7 |
| 20260904151526 | 81 | 278 | 1.0 | 4.0 | 0.00 | 0.38 | 0.38 | 62 | 1009.8 |
| 20260904150033 | 81 | 13 | 0.0 | 5.0 | 0.00 | 0.38 | 0.38 | 65 | 1009.9 |
| 20260904144522 | 80 | 104 | 1.0 | 4.0 | 0.00 | 0.38 | 0.38 | 70 | 1010.0 |
| 20260904143018 | 79 | 291 | 1.0 | 5.0 | 0.00 | 0.38 | 0.38 | 72 | 1009.9 |
| 20260904141516 | 78 | 14 | 1.0 | 4.0 | 0.00 | 0.38 | 0.38 | 75 | 1009.9 |
| 20260904140012 | 78 | 38 | 0.0 | 4.0 | 0.00 | 0.38 | 0.38 | 77 | 1010.1 |
| 20260904134508 | 78 | 255 | 0.0 | 4.0 | 0.00 | 0.38 | 0.38 | 85 | 1010.0 |
| 20260904134208 | 78 | 215 | 0.0 | 4.0 | 0.00 | 0.38 | 0.38 | 87 | 1010.1 |
| 20260904133141 | 77 | 19 | 0.0 | 1.0 | 0.00 | 0.38 | 0.38 | 87 | 1010.1 |
| 20260904133015 | 76 | 19 | 0.0 | 1.0 | 0.00 | 0.38 | 0.38 | 87 | 1010.0 |
| 20260904132213 | 76 | 277 | 1.0 | 2.0 | 0.00 | 0.38 | 0.38 | 88 | 1010.2 |
| 20260904131552 | 75 | 284 | 0.0 | 3.0 | 0.00 | 0.38 | 0.38 | 89 | 1010.2 |
| 20260904131151 | 76 | 260 | 0.0 | 3.0 | 0.00 | 0.38 | 0.38 | 90 | 1010.3 |
| 20260904130044 | 74 | 274 | 0.0 | 2.0 | 0.00 | 0.38 | 0.38 | 92 | 1010.3 |
| 20260904124539 | 73 | 280 | 0.0 | 1.0 | 0.00 | 0.38 | 0.38 | 95 | 1010.3 |
| 20260904123035 | 72 | 98 | 0.0 | 1.0 | 0.00 | 0.38 | 0.38 | 95 | 1010.3 |
| 20260904121531 | 71 | 103 | 0.0 | 1.0 | 0.00 | 0.38 | 0.38 | 96 | 1010.4 |
| 20260904120030 | 71 | 103 | 0.0 | 1.0 | 0.00 | 0.38 | 0.38 | 96 | 1010.2 |
| 20260904114530 | 71 | 104 | 0.0 | 2.0 | 0.00 | 0.38 | 0.38 | 95 | 1010.2 |
| 20260904113030 | 70 | 136 | 0.0 | 1.0 | 0.00 | 0.38 | 0.38 | 96 | 1010.1 |
| 20260904111528 | 71 | 173 | 0.0 | 1.0 | 0.00 | 0.38 | 0.38 | 96 | 1009.9 |
| 20260904110028 | 71 | 161 | 0.0 | 1.0 | 0.00 | 0.38 | 0.38 | 96 | 1010.0 |
| 20260904104527 | 71 | 200 | 0.0 | 2.0 | 0.03 | 0.38 | 0.38 | 96 | 1009.9 |
| 20260904103028 | 71 | 310 | 0.0 | 1.0 | 0.11 | 0.38 | 0.38 | 96 | 1009.9 |
| 20260904101526 | 71 | 310 | 0.0 | 1.0 | 0.31 | 0.38 | 0.38 | 95 | 1010.0 |
| 20260904100025 | 71 | 30 | 0.0 | 1.0 | 0.36 | 0.38 | 0.38 | 95 | 1009.7 |
| 20260904094525 | 71 | 91 | 0.0 | 1.0 | 0.35 | 0.35 | 0.35 | 95 | 1008.8 |
| 20260904093023 | 72 | 188 | 1.0 | 2.0 | 0.26 | 0.26 | 0.26 | 95 | 1009.6 |
| 20260904091536 | 72 | 101 | 0.0 | 0.0 | 0.06 | 0.06 | 0.06 | 94 | 1009.8 |
| 20260904090018 | 72 | 101 | 0.0 | 1.0 | 0.02 | 0.02 | 0.02 | 94 | 1009.8 |
| 20260904084518 | 72 | 182 | 0.0 | 0.0 | 0.00 | 0.14 | 0.00 | 94 | 1009.6 |
| 20260904083026 | 71 | 181 | 0.0 | 0.0 | 0.00 | 0.14 | 0.00 | 94 | 1009.4 |
| 20260904081544 | 71 | 61 | 0.0 | 1.0 | 0.00 | 0.14 | 0.00 | 94 | 1009.6 |
| 20260904080041 | 71 | 295 | 0.0 | 3.0 | 0.00 | 0.14 | 0.00 | 94 | 1009.8 |
| 20260904074558 | 71 | 248 | 0.0 | 1.0 | 0.00 | 0.14 | 0.00 | 94 | 1009.2 |
| 20260904073040 | 71 | 300 | 0.0 | 0.0 | 0.00 | 0.14 | 0.00 | 95 | 1009.1 |
| 20260904071553 | 71 | 300 | 0.0 | 1.0 | 0.00 | 0.14 | 0.00 | 95 | 1009.2 |
| 20260904070035 | 71 | 300 | 0.0 | 0.0 | 0.00 | 0.14 | 0.00 | 95 | 1009.6 |
| 20260904064535 | 71 | 300 | 0.0 | 0.0 | 0.00 | 0.14 | 0.00 | 95 | 1009.7 |
| 20260904063043 | 71 | 300 | 0.0 | 0.0 | 0.00 | 0.14 | 0.00 | 94 | 1009.9 |
| 20260904061530 | 71 | 300 | 0.0 | 0.0 | 0.00 | 0.14 | 0.00 | 95 | 1010.1 |
| 20260904060029 | 71 | 300 | 0.0 | 0.0 | 0.00 | 0.14 | 0.00 | 94 | 1010.4 |
| 20260904054534 | 71 | 300 | 0.0 | 0.0 | 0.00 | 0.14 | 0.00 | 94 | 1010.3 |
| 20260904053026 | 71 | 300 | 0.0 | 0.0 | 0.00 | 0.14 | 0.00 | 94 | 1010.6 |
| 20260904051522 | 71 | 300 | 0.0 | 0.0 | 0.00 | 0.14 | 0.00 | 94 | 1010.9 |
| 20260904050020 | 71 | 300 | 0.0 | 0.0 | 0.00 | 0.14 | 0.00 | 94 | 1011.1 |
| 20260904044519 | 71 | 300 | 0.0 | 0.0 | 0.00 | 0.14 | 0.00 | 94 | 1011.0 |
| 20260904043017 | 71 | 300 | 0.0 | 0.0 | 0.00 | 0.14 | 0.00 | 93 | 1011.2 |
| 20260904041523 | 71 | 300 | 0.0 | 0.0 | 0.00 | 0.14 | 0.00 | 93 | 1011.3 |
| 20260904040011 | 71 | 300 | 0.0 | 1.0 | 0.00 | 0.14 | 0.00 | 93 | 1011.4 |
| 20260904034511 | 71 | 300 | 0.0 | 0.0 | 0.00 | 0.14 | 0.14 | 93 | 1011.5 |
| 20260904033010 | 71 | 299 | 0.0 | 0.0 | 0.00 | 0.14 | 0.14 | 92 | 1011.7 |
| 20260904031509 | 71 | 299 | 0.0 | 0.0 | 0.00 | 0.14 | 0.14 | 92 | 1011.4 |
| 20260904030009 | 71 | 299 | 0.0 | 0.0 | 0.00 | 0.14 | 0.14 | 92 | 1011.5 |
| 20260904024509 | 71 | 299 | 0.0 | 1.0 | 0.00 | 0.14 | 0.14 | 92 | 1011.6 |
| 20260904023010 | 72 | 299 | 0.0 | 0.0 | 0.00 | 0.14 | 0.14 | 91 | 1011.9 |
| 20260904021519 | 72 | 300 | 0.0 | 1.0 | 0.00 | 0.14 | 0.14 | 91 | 1012.1 |
| 20260904020107 | 72 | 300 | 0.0 | 0.0 | 0.00 | 0.14 | 0.14 | 91 | 1012.1 |
| 20260904014505 | 72 | 300 | 0.0 | 1.0 | 0.00 | 0.14 | 0.14 | 91 | 1012.3 |
| 20260904013005 | 72 | 300 | 0.0 | 0.0 | 0.00 | 0.14 | 0.14 | 90 | 1012.4 |
| 20260904011506 | 72 | 300 | 0.0 | 1.0 | 0.00 | 0.14 | 0.14 | 90 | 1012.3 |
| 20260904010003 | 72 | 300 | 0.0 | 0.0 | 0.00 | 0.14 | 0.14 | 89 | 1012.3 |
| 20260904004502 | 73 | 300 | 0.0 | 0.0 | 0.00 | 0.14 | 0.14 | 89 | 1012.2 |
| 20260904003003 | 73 | 300 | 0.0 | 0.0 | 0.00 | 0.14 | 0.14 | 89 | 1012.1 |
| 20260904001600 | 73 | 300 | 0.0 | 0.0 | 0.00 | 0.14 | 0.14 | 88 | 1012.0 |
| 20260904000058 | 73 | 300 | 0.0 | 1.0 | 0.00 | 0.14 | 0.14 | 87 | 1011.8 |
| 20260903234557 | 74 | 296 | 0.0 | 0.0 | 0.00 | 0.14 | 0.14 | 86 | 1011.7 |
| 20260903233057 | 74 | 296 | 0.0 | 1.0 | 0.00 | 0.14 | 0.14 | 85 | 1011.6 |
| 20260903231605 | 75 | 296 | 0.0 | 2.0 | 0.00 | 0.14 | 0.14 | 85 | 1011.4 |
| 20260903224554 | 76 | 291 | 0.0 | 5.0 | 0.00 | 0.14 | 0.14 | 83 | 1011.7 |
| 20260903223053 | 76 | 267 | 0.0 | 3.0 | 0.00 | 0.14 | 0.14 | 82 | 1011.7 |
| 20260903221552 | 77 | 270 | 0.0 | 2.0 | 0.00 | 0.14 | 0.14 | 81 | 1011.7 |
| 20260903220053 | 78 | 211 | 1.0 | 3.0 | 0.00 | 0.14 | 0.14 | 80 | 1011.6 |
| 20260903214559 | 78 | 286 | 1.0 | 5.0 | 0.00 | 0.14 | 0.14 | 79 | 1011.8 |
| 20260903213054 | 79 | 307 | 2.0 | 5.0 | 0.00 | 0.14 | 0.14 | 78 | 1011.9 |
| 20260903211551 | 80 | 189 | 1.0 | 3.0 | 0.00 | 0.14 | 0.14 | 76 | 1011.8 |
| 20260903210049 | 81 | 210 | 1.0 | 5.0 | 0.00 | 0.14 | 0.14 | 76 | 1011.8 |
| 20260903204551 | 81 | 172 | 1.0 | 5.0 | 0.00 | 0.14 | 0.14 | 77 | 1011.9 |
| 20260903203052 | 80 | 89 | 2.0 | 5.0 | 0.00 | 0.14 | 0.14 | 76 | 1011.6 |
| 20260903201544 | 80 | 272 | 2.0 | 5.0 | 0.00 | 0.14 | 0.14 | 77 | 1011.7 |
| 20260903200048 | 78 | 311 | 1.0 | 4.0 | 0.00 | 0.14 | 0.14 | 81 | 1011.8 |
| 20260903194544 | 78 | 288 | 1.0 | 5.0 | 0.00 | 0.14 | 0.14 | 81 | 1012.2 |
| 20260903193039 | 78 | 278 | 1.0 | 4.0 | 0.00 | 0.14 | 0.14 | 81 | 1012.4 |
| 20260903191539 | 78 | 293 | 0.0 | 5.0 | 0.00 | 0.14 | 0.14 | 82 | 1012.4 |